sensor_id;sensor_type;location;lat;lon;timestamp;pressure;altitude;pressure_sealevel;temperature;humidity
75996;BME280;64681;49.738;9.004;2022-12-10T00:01:16;98411.66;;;2.80;71.09
75996;BME280;64681;49.738;9.004;2022-12-10T00:03:42;98412.34;;;2.63;71.96
75996;BME280;64681;49.738;9.004;2022-12-10T00:06:30;98403.94;;;2.38;72.81
75996;BME280;64681;49.738;9.004;2022-12-10T00:08:56;98410.69;;;2.53;72.48
75996;BME280;64681;49.738;9.004;2022-12-10T00:11:22;98416.41;;;2.69;72.44
75996;BME280;64681;49.738;9.004;2022-12-10T00:13:50;98416.63;;;2.81;71.71
75996;BME280;64681;49.738;9.004;2022-12-10T00:16:18;98408.31;;;2.65;71.91
75996;BME280;64681;49.738;9.004;2022-12-10T00:18:44;98416.72;;;2.67;72.33
75996;BME280;64681;49.738;9.004;2022-12-10T00:21:16;98410.16;;;2.88;71.49
75996;BME280;64681;49.738;9.004;2022-12-10T00:23:42;98409.75;;;3.03;71.11
75996;BME280;64681;49.738;9.004;2022-12-10T00:26:14;98405.81;;;3.23;69.79
75996;BME280;64681;49.738;9.004;2022-12-10T00:28:41;98412.13;;;3.05;70.55
75996;BME280;64681;49.738;9.004;2022-12-10T00:31:11;98417.94;;;3.24;69.56
75996;BME280;64681;49.738;9.004;2022-12-10T00:33:37;98400.09;;;2.90;70.61
75996;BME280;64681;49.738;9.004;2022-12-10T00:36:05;98409.16;;;2.75;71.13
75996;BME280;64681;49.738;9.004;2022-12-10T00:38:31;98408.16;;;2.93;70.62
75996;BME280;64681;49.738;9.004;2022-12-10T00:40:57;98401.66;;;2.91;70.12
75996;BME280;64681;49.738;9.004;2022-12-10T00:43:23;98409.16;;;2.75;70.95
75996;BME280;64681;49.738;9.004;2022-12-10T00:45:48;98396.44;;;2.77;70.42
75996;BME280;64681;49.738;9.004;2022-12-10T00:48:14;98412.56;;;2.52;72.05
75996;BME280;64681;49.738;9.004;2022-12-10T00:50:39;98415.16;;;2.66;71.77
75996;BME280;64681;49.738;9.004;2022-12-10T00:53:05;98403.41;;;2.73;71.43
75996;BME280;64681;49.738;9.004;2022-12-10T00:55:30;98406.53;;;2.75;70.89
75996;BME280;64681;49.738;9.004;2022-12-10T00:57:56;98412.38;;;2.72;71.07
75996;BME280;64681;49.738;9.004;2022-12-10T01:00:21;98411.44;;;2.45;72.56
75996;BME280;64681;49.738;9.004;2022-12-10T01:02:47;98424.69;;;2.53;72.31
75996;BME280;64681;49.738;9.004;2022-12-10T01:05:12;98418.19;;;2.60;72.61
75996;BME280;64681;49.738;9.004;2022-12-10T01:07:38;98419.38;;;2.31;73.12
75996;BME280;64681;49.738;9.004;2022-12-10T01:10:04;98412.31;;;2.17;73.33
75996;BME280;64681;49.738;9.004;2022-12-10T01:12:29;98417.63;;;2.63;71.42
75996;BME280;64681;49.738;9.004;2022-12-10T01:14:55;98420.34;;;2.35;72.36
75996;BME280;64681;49.738;9.004;2022-12-10T01:17:20;98404.53;;;2.35;72.41
75996;BME280;64681;49.738;9.004;2022-12-10T01:19:47;98424.34;;;2.32;72.32
75996;BME280;64681;49.738;9.004;2022-12-10T01:22:13;98431.59;;;2.49;72.06
75996;BME280;64681;49.738;9.004;2022-12-10T01:24:38;98426.00;;;2.05;73.67
75996;BME280;64681;49.738;9.004;2022-12-10T01:27:04;98429.44;;;1.78;73.69
75996;BME280;64681;49.738;9.004;2022-12-10T01:29:30;98440.09;;;2.24;72.87
75996;BME280;64681;49.738;9.004;2022-12-10T01:31:57;98438.16;;;2.15;72.65
75996;BME280;64681;49.738;9.004;2022-12-10T01:34:23;98440.84;;;2.38;72.39
75996;BME280;64681;49.738;9.004;2022-12-10T01:36:52;98435.84;;;2.14;72.76
75996;BME280;64681;49.738;9.004;2022-12-10T01:39:20;98442.31;;;1.80;74.60
75996;BME280;64681;49.738;9.004;2022-12-10T01:41:52;98449.91;;;1.95;73.70
75996;BME280;64681;49.738;9.004;2022-12-10T01:46:47;98450.34;;;2.11;73.78
75996;BME280;64681;49.738;9.004;2022-12-10T01:51:42;98451.13;;;2.12;73.73
75996;BME280;64681;49.738;9.004;2022-12-10T01:54:12;98461.38;;;2.50;71.84
75996;BME280;64681;49.738;9.004;2022-12-10T01:56:43;98461.59;;;2.40;72.37
75996;BME280;64681;49.738;9.004;2022-12-10T01:59:10;98470.69;;;2.33;72.88
75996;BME280;64681;49.738;9.004;2022-12-10T02:09:55;98467.00;;;2.34;72.03
75996;BME280;64681;49.738;9.004;2022-12-10T02:12:46;98467.28;;;2.33;72.52
75996;BME280;64681;49.738;9.004;2022-12-10T02:15:19;98468.28;;;2.23;72.78
75996;BME280;64681;49.738;9.004;2022-12-10T02:17:54;98453.75;;;2.26;72.24
75996;BME280;64681;49.738;9.004;2022-12-10T02:25:38;98464.94;;;2.31;72.06
75996;BME280;64681;49.738;9.004;2022-12-10T02:28:39;98464.13;;;2.45;71.56
75996;BME280;64681;49.738;9.004;2022-12-10T02:31:14;98464.16;;;2.31;72.19
75996;BME280;64681;49.738;9.004;2022-12-10T02:33:49;98462.97;;;2.37;72.39
75996;BME280;64681;49.738;9.004;2022-12-10T02:36:20;98455.66;;;2.34;71.86
75996;BME280;64681;49.738;9.004;2022-12-10T02:38:49;98459.09;;;2.20;72.51
75996;BME280;64681;49.738;9.004;2022-12-10T02:41:26;98456.81;;;2.42;71.58
75996;BME280;64681;49.738;9.004;2022-12-10T02:43:58;98467.59;;;2.54;71.14
75996;BME280;64681;49.738;9.004;2022-12-10T02:46:26;98462.81;;;2.19;71.83
75996;BME280;64681;49.738;9.004;2022-12-10T02:48:56;98462.34;;;2.17;73.27
75996;BME280;64681;49.738;9.004;2022-12-10T02:51:23;98461.59;;;1.75;74.04
75996;BME280;64681;49.738;9.004;2022-12-10T02:53:59;98458.16;;;2.16;72.39
75996;BME280;64681;49.738;9.004;2022-12-10T03:04:34;98463.28;;;1.71;74.41
75996;BME280;64681;49.738;9.004;2022-12-10T03:07:10;98454.84;;;1.97;73.80
75996;BME280;64681;49.738;9.004;2022-12-10T03:09:53;98458.16;;;2.02;73.79
75996;BME280;64681;49.738;9.004;2022-12-10T03:12:36;98456.22;;;2.08;73.55
75996;BME280;64681;49.738;9.004;2022-12-10T03:15:06;98457.28;;;2.21;72.82
75996;BME280;64681;49.738;9.004;2022-12-10T03:17:36;98455.09;;;2.23;72.27
75996;BME280;64681;49.738;9.004;2022-12-10T03:20:06;98451.31;;;2.15;73.17
75996;BME280;64681;49.738;9.004;2022-12-10T03:22:38;98457.53;;;1.69;74.08
75996;BME280;64681;49.738;9.004;2022-12-10T03:25:07;98453.91;;;1.93;73.52
75996;BME280;64681;49.738;9.004;2022-12-10T03:27:37;98451.63;;;2.14;72.87
75996;BME280;64681;49.738;9.004;2022-12-10T03:30:04;98450.72;;;2.18;73.29
75996;BME280;64681;49.738;9.004;2022-12-10T03:32:30;98449.97;;;2.04;73.57
75996;BME280;64681;49.738;9.004;2022-12-10T03:34:58;98438.56;;;2.09;73.87
75996;BME280;64681;49.738;9.004;2022-12-10T03:37:27;98442.59;;;2.29;72.18
75996;BME280;64681;49.738;9.004;2022-12-10T03:39:55;98444.53;;;2.37;72.11
75996;BME280;64681;49.738;9.004;2022-12-10T03:42:22;98441.16;;;2.22;72.97
75996;BME280;64681;49.738;9.004;2022-12-10T03:44:50;98442.41;;;2.25;72.59
75996;BME280;64681;49.738;9.004;2022-12-10T03:47:15;98447.25;;;2.09;73.23
75996;BME280;64681;49.738;9.004;2022-12-10T03:49:42;98446.63;;;2.26;72.80
75996;BME280;64681;49.738;9.004;2022-12-10T03:52:09;98454.78;;;2.38;72.32
75996;BME280;64681;49.738;9.004;2022-12-10T03:54:34;98451.22;;;2.20;72.64
75996;BME280;64681;49.738;9.004;2022-12-10T03:57:00;98451.88;;;2.26;72.60
75996;BME280;64681;49.738;9.004;2022-12-10T03:59:25;98449.78;;;2.00;73.12
75996;BME280;64681;49.738;9.004;2022-12-10T04:01:51;98451.59;;;2.28;73.10
75996;BME280;64681;49.738;9.004;2022-12-10T04:04:17;98451.69;;;2.36;72.41
75996;BME280;64681;49.738;9.004;2022-12-10T04:06:42;98453.97;;;2.15;73.10
75996;BME280;64681;49.738;9.004;2022-12-10T04:09:13;98457.41;;;2.02;73.29
75996;BME280;64681;49.738;9.004;2022-12-10T04:11:39;98452.06;;;2.30;72.76
75996;BME280;64681;49.738;9.004;2022-12-10T04:14:05;98458.13;;;2.53;70.91
75996;BME280;64681;49.738;9.004;2022-12-10T04:16:49;98453.03;;;2.34;71.94
75996;BME280;64681;49.738;9.004;2022-12-10T04:19:17;98462.75;;;2.47;71.74
75996;BME280;64681;49.738;9.004;2022-12-10T04:21:44;98453.16;;;2.15;72.33
75996;BME280;64681;49.738;9.004;2022-12-10T04:24:34;98460.47;;;2.32;71.52
75996;BME280;64681;49.738;9.004;2022-12-10T04:27:28;98466.66;;;1.99;72.04
75996;BME280;64681;49.738;9.004;2022-12-10T04:29:55;98465.78;;;2.41;71.66
75996;BME280;64681;49.738;9.004;2022-12-10T04:32:24;98468.28;;;2.23;71.26
75996;BME280;64681;49.738;9.004;2022-12-10T04:34:50;98468.59;;;2.08;72.44
75996;BME280;64681;49.738;9.004;2022-12-10T04:37:19;98470.91;;;2.23;71.84
75996;BME280;64681;49.738;9.004;2022-12-10T04:39:45;98467.31;;;2.19;71.44
75996;BME280;64681;49.738;9.004;2022-12-10T04:42:12;98475.28;;;2.28;71.11
75996;BME280;64681;49.738;9.004;2022-12-10T04:44:37;98467.34;;;2.42;70.69
75996;BME280;64681;49.738;9.004;2022-12-10T04:47:05;98473.59;;;1.95;72.19
75996;BME280;64681;49.738;9.004;2022-12-10T04:49:31;98466.94;;;2.12;71.70
75996;BME280;64681;49.738;9.004;2022-12-10T04:51:57;98470.06;;;2.14;71.97
75996;BME280;64681;49.738;9.004;2022-12-10T04:54:24;98469.66;;;2.20;71.83
75996;BME280;64681;49.738;9.004;2022-12-10T04:56:49;98471.81;;;2.04;72.85
75996;BME280;64681;49.738;9.004;2022-12-10T04:59:15;98467.81;;;2.07;72.44
75996;BME280;64681;49.738;9.004;2022-12-10T05:01:41;98472.78;;;2.09;72.70
75996;BME280;64681;49.738;9.004;2022-12-10T05:04:10;98473.97;;;2.02;72.99
75996;BME280;64681;49.738;9.004;2022-12-10T05:06:37;98473.28;;;2.11;72.00
75996;BME280;64681;49.738;9.004;2022-12-10T05:09:03;98483.28;;;2.36;71.04
75996;BME280;64681;49.738;9.004;2022-12-10T05:11:30;98483.84;;;2.47;70.67
75996;BME280;64681;49.738;9.004;2022-12-10T05:13:57;98490.34;;;2.13;71.65
75996;BME280;64681;49.738;9.004;2022-12-10T05:16:24;98490.34;;;2.13;71.65
75996;BME280;64681;49.738;9.004;2022-12-10T05:18:51;98486.16;;;1.70;72.72
75996;BME280;64681;49.738;9.004;2022-12-10T05:21:19;98493.50;;;1.87;71.87
75996;BME280;64681;49.738;9.004;2022-12-10T05:23:48;98495.44;;;1.68;72.65
75996;BME280;64681;49.738;9.004;2022-12-10T05:26:20;98493.28;;;1.70;72.77
75996;BME280;64681;49.738;9.004;2022-12-10T05:28:51;98498.66;;;2.07;71.74
75996;BME280;64681;49.738;9.004;2022-12-10T05:31:28;98497.28;;;1.95;71.86
75996;BME280;64681;49.738;9.004;2022-12-10T05:33:56;98498.84;;;2.10;71.68
75996;BME280;64681;49.738;9.004;2022-12-10T05:36:25;98504.38;;;2.09;71.70
75996;BME280;64681;49.738;9.004;2022-12-10T05:38:51;98510.25;;;1.92;71.60
75996;BME280;64681;49.738;9.004;2022-12-10T05:41:22;98512.09;;;2.19;71.23
75996;BME280;64681;49.738;9.004;2022-12-10T05:43:50;98499.91;;;2.09;70.71
75996;BME280;64681;49.738;9.004;2022-12-10T05:46:19;98511.13;;;2.01;71.03
75996;BME280;64681;49.738;9.004;2022-12-10T05:48:45;98517.44;;;2.28;70.13
75996;BME280;64681;49.738;9.004;2022-12-10T05:51:17;98516.78;;;2.08;70.42
75996;BME280;64681;49.738;9.004;2022-12-10T05:53:43;98522.84;;;1.95;72.22
75996;BME280;64681;49.738;9.004;2022-12-10T05:56:11;98512.47;;;2.26;70.03
75996;BME280;64681;49.738;9.004;2022-12-10T05:58:38;98512.69;;;2.02;70.53
75996;BME280;64681;49.738;9.004;2022-12-10T06:01:10;98517.84;;;2.07;70.93
75996;BME280;64681;49.738;9.004;2022-12-10T06:03:36;98514.81;;;2.28;70.69
75996;BME280;64681;49.738;9.004;2022-12-10T06:06:03;98523.69;;;2.18;70.18
75996;BME280;64681;49.738;9.004;2022-12-10T06:08:29;98527.31;;;1.94;71.33
75996;BME280;64681;49.738;9.004;2022-12-10T06:10:55;98526.44;;;1.99;72.08
75996;BME280;64681;49.738;9.004;2022-12-10T06:13:23;98516.88;;;2.17;70.52
75996;BME280;64681;49.738;9.004;2022-12-10T06:15:49;98518.50;;;2.27;69.53
75996;BME280;64681;49.738;9.004;2022-12-10T06:18:15;98521.81;;;2.18;69.90
75996;BME280;64681;49.738;9.004;2022-12-10T06:20:40;98534.81;;;2.01;71.22
75996;BME280;64681;49.738;9.004;2022-12-10T06:23:06;98534.34;;;1.99;71.35
75996;BME280;64681;49.738;9.004;2022-12-10T06:25:33;98538.72;;;1.89;71.54
75996;BME280;64681;49.738;9.004;2022-12-10T06:27:58;98542.44;;;2.02;71.51
75996;BME280;64681;49.738;9.004;2022-12-10T06:30:24;98542.72;;;2.15;71.54
75996;BME280;64681;49.738;9.004;2022-12-10T06:32:50;98547.09;;;2.19;71.34
75996;BME280;64681;49.738;9.004;2022-12-10T06:35:16;98521.56;;;2.20;70.38
75996;BME280;64681;49.738;9.004;2022-12-10T06:37:41;98544.56;;;2.28;70.41
75996;BME280;64681;49.738;9.004;2022-12-10T06:40:08;98551.78;;;2.22;70.44
75996;BME280;64681;49.738;9.004;2022-12-10T06:42:33;98544.34;;;2.38;69.76
75996;BME280;64681;49.738;9.004;2022-12-10T06:44:59;98541.63;;;2.30;70.35
75996;BME280;64681;49.738;9.004;2022-12-10T06:47:25;98554.97;;;2.47;69.12
75996;BME280;64681;49.738;9.004;2022-12-10T06:49:51;98560.06;;;2.44;69.81
75996;BME280;64681;49.738;9.004;2022-12-10T06:52:16;98560.16;;;2.38;70.14
75996;BME280;64681;49.738;9.004;2022-12-10T06:54:42;98551.28;;;2.48;69.58
75996;BME280;64681;49.738;9.004;2022-12-10T06:57:07;98561.50;;;2.50;70.28
75996;BME280;64681;49.738;9.004;2022-12-10T06:59:33;98560.50;;;2.60;69.86
75996;BME280;64681;49.738;9.004;2022-12-10T07:01:58;98573.50;;;2.56;69.94
75996;BME280;64681;49.738;9.004;2022-12-10T07:04:24;98577.13;;;2.60;69.89
75996;BME280;64681;49.738;9.004;2022-12-10T07:06:50;98568.31;;;2.65;70.55
75996;BME280;64681;49.738;9.004;2022-12-10T07:09:16;98572.88;;;2.73;69.74
75996;BME280;64681;49.738;9.004;2022-12-10T07:11:42;98576.13;;;2.70;69.87
75996;BME280;64681;49.738;9.004;2022-12-10T07:14:15;98577.19;;;2.69;69.71
75996;BME280;64681;49.738;9.004;2022-12-10T07:16:41;98573.66;;;2.74;69.96
75996;BME280;64681;49.738;9.004;2022-12-10T07:19:10;98578.47;;;2.58;69.89
75996;BME280;64681;49.738;9.004;2022-12-10T07:21:39;98581.47;;;2.65;70.01
75996;BME280;64681;49.738;9.004;2022-12-10T07:24:11;98586.66;;;2.70;69.40
75996;BME280;64681;49.738;9.004;2022-12-10T07:26:40;98586.34;;;2.72;69.51
75996;BME280;64681;49.738;9.004;2022-12-10T07:29:07;98586.50;;;2.52;70.17
75996;BME280;64681;49.738;9.004;2022-12-10T07:31:35;98582.97;;;2.71;69.73
75996;BME280;64681;49.738;9.004;2022-12-10T07:34:01;98596.91;;;2.72;69.86
75996;BME280;64681;49.738;9.004;2022-12-10T07:36:27;98596.03;;;2.62;69.99
75996;BME280;64681;49.738;9.004;2022-12-10T07:38:54;98596.03;;;2.76;69.48
75996;BME280;64681;49.738;9.004;2022-12-10T07:41:22;98594.84;;;2.68;69.81
75996;BME280;64681;49.738;9.004;2022-12-10T07:43:48;98593.88;;;2.78;69.05
75996;BME280;64681;49.738;9.004;2022-12-10T07:46:16;98600.41;;;2.81;69.43
75996;BME280;64681;49.738;9.004;2022-12-10T07:48:43;98595.38;;;2.57;70.32
75996;BME280;64681;49.738;9.004;2022-12-10T07:51:10;98601.88;;;2.73;70.18
75996;BME280;64681;49.738;9.004;2022-12-10T07:53:36;98598.28;;;2.69;69.92
75996;BME280;64681;49.738;9.004;2022-12-10T07:56:02;98602.94;;;2.86;69.65
75996;BME280;64681;49.738;9.004;2022-12-10T07:58:28;98599.88;;;2.93;68.74
75996;BME280;64681;49.738;9.004;2022-12-10T08:00:54;98604.56;;;2.96;68.43
75996;BME280;64681;49.738;9.004;2022-12-10T08:03:19;98602.97;;;3.09;68.75
75996;BME280;64681;49.738;9.004;2022-12-10T08:05:45;98601.22;;;3.04;68.45
75996;BME280;64681;49.738;9.004;2022-12-10T08:08:11;98603.91;;;2.90;67.87
75996;BME280;64681;49.738;9.004;2022-12-10T08:10:37;98609.56;;;2.97;68.67
75996;BME280;64681;49.738;9.004;2022-12-10T08:13:04;98610.50;;;3.01;68.37
75996;BME280;64681;49.738;9.004;2022-12-10T08:15:30;98622.31;;;3.04;68.26
75996;BME280;64681;49.738;9.004;2022-12-10T08:17:56;98622.47;;;3.22;67.88
75996;BME280;64681;49.738;9.004;2022-12-10T08:20:23;98622.63;;;3.03;67.43
75996;BME280;64681;49.738;9.004;2022-12-10T08:22:49;98619.66;;;3.04;68.00
75996;BME280;64681;49.738;9.004;2022-12-10T08:25:15;98627.63;;;2.90;68.77
75996;BME280;64681;49.738;9.004;2022-12-10T08:27:40;98628.34;;;2.82;68.36
75996;BME280;64681;49.738;9.004;2022-12-10T08:30:07;98626.66;;;2.72;69.70
75996;BME280;64681;49.738;9.004;2022-12-10T08:32:33;98607.06;;;2.50;69.42
75996;BME280;64681;49.738;9.004;2022-12-10T08:34:58;98632.59;;;2.92;68.19
75996;BME280;64681;49.738;9.004;2022-12-10T08:37:24;98631.78;;;3.05;67.52
75996;BME280;64681;49.738;9.004;2022-12-10T08:39:49;98629.38;;;2.95;67.88
75996;BME280;64681;49.738;9.004;2022-12-10T08:42:15;98638.78;;;2.31;69.42
75996;BME280;64681;49.738;9.004;2022-12-10T08:44:41;98636.16;;;2.31;69.71
75996;BME280;64681;49.738;9.004;2022-12-10T08:47:06;98638.53;;;2.33;70.00
75996;BME280;64681;49.738;9.004;2022-12-10T08:49:32;98629.16;;;2.55;69.45
75996;BME280;64681;49.738;9.004;2022-12-10T08:51:57;98632.06;;;2.25;70.42
75996;BME280;64681;49.738;9.004;2022-12-10T08:54:23;98632.25;;;2.29;69.76
75996;BME280;64681;49.738;9.004;2022-12-10T08:56:48;98642.69;;;2.34;70.24
75996;BME280;64681;49.738;9.004;2022-12-10T08:59:14;98637.97;;;1.89;72.03
75996;BME280;64681;49.738;9.004;2022-12-10T09:01:40;98655.47;;;2.27;70.51
75996;BME280;64681;49.738;9.004;2022-12-10T09:04:05;98640.66;;;2.31;70.82
75996;BME280;64681;49.738;9.004;2022-12-10T09:06:31;98638.50;;;2.47;69.85
75996;BME280;64681;49.738;9.004;2022-12-10T09:08:56;98655.50;;;2.55;69.30
75996;BME280;64681;49.738;9.004;2022-12-10T09:11:28;98646.81;;;2.40;69.95
75996;BME280;64681;49.738;9.004;2022-12-10T09:13:54;98640.56;;;2.36;70.30
75996;BME280;64681;49.738;9.004;2022-12-10T09:16:20;98643.59;;;2.71;69.64
75996;BME280;64681;49.738;9.004;2022-12-10T09:18:46;98650.31;;;2.63;69.15
75996;BME280;64681;49.738;9.004;2022-12-10T09:21:14;98654.50;;;2.22;70.73
75996;BME280;64681;49.738;9.004;2022-12-10T09:23:42;98655.97;;;2.43;70.54
75996;BME280;64681;49.738;9.004;2022-12-10T09:26:09;98655.97;;;2.71;69.10
75996;BME280;64681;49.738;9.004;2022-12-10T09:28:37;98655.19;;;2.56;70.10
75996;BME280;64681;49.738;9.004;2022-12-10T09:31:05;98655.88;;;2.62;69.37
75996;BME280;64681;49.738;9.004;2022-12-10T09:33:32;98654.31;;;2.75;69.57
75996;BME280;64681;49.738;9.004;2022-12-10T09:35:58;98658.03;;;2.74;69.05
75996;BME280;64681;49.738;9.004;2022-12-10T09:38:24;98659.13;;;2.45;69.83
75996;BME280;64681;49.738;9.004;2022-12-10T09:41:03;98650.50;;;2.81;68.98
75996;BME280;64681;49.738;9.004;2022-12-10T09:43:48;98660.66;;;2.60;69.35
75996;BME280;64681;49.738;9.004;2022-12-10T09:46:50;98663.75;;;2.90;69.03
75996;BME280;64681;49.738;9.004;2022-12-10T09:52:22;98661.72;;;2.87;68.85
75996;BME280;64681;49.738;9.004;2022-12-10T09:55:21;98658.47;;;3.04;67.95
75996;BME280;64681;49.738;9.004;2022-12-10T09:57:50;98657.22;;;2.73;69.35
75996;BME280;64681;49.738;9.004;2022-12-10T10:00:54;98657.59;;;2.94;68.61
75996;BME280;64681;49.738;9.004;2022-12-10T10:03:14;98650.44;;;3.09;68.39
75996;BME280;64681;49.738;9.004;2022-12-10T10:05:46;98652.50;;;2.98;68.32
75996;BME280;64681;49.738;9.004;2022-12-10T10:10:49;98649.44;;;2.82;69.46
75996;BME280;64681;49.738;9.004;2022-12-10T10:16:23;98642.72;;;3.58;67.86
75996;BME280;64681;49.738;9.004;2022-12-10T10:21:25;98647.06;;;3.76;66.92
75996;BME280;64681;49.738;9.004;2022-12-10T10:23:52;98655.38;;;3.92;66.68
75996;BME280;64681;49.738;9.004;2022-12-10T10:26:18;98648.09;;;3.98;66.01
75996;BME280;64681;49.738;9.004;2022-12-10T10:28:44;98653.06;;;4.00;66.01
75996;BME280;64681;49.738;9.004;2022-12-10T10:31:26;98646.81;;;3.87;66.00
75996;BME280;64681;49.738;9.004;2022-12-10T10:33:57;98657.34;;;4.09;65.54
75996;BME280;64681;49.738;9.004;2022-12-10T10:36:27;98659.22;;;3.86;66.29
75996;BME280;64681;49.738;9.004;2022-12-10T10:38:53;98648.78;;;3.81;65.79
75996;BME280;64681;49.738;9.004;2022-12-10T10:41:19;98654.09;;;3.58;66.29
75996;BME280;64681;49.738;9.004;2022-12-10T10:43:45;98635.31;;;3.37;66.18
75996;BME280;64681;49.738;9.004;2022-12-10T10:46:21;98653.25;;;3.12;68.34
75996;BME280;64681;49.738;9.004;2022-12-10T10:48:47;98655.53;;;2.91;68.39
75996;BME280;64681;49.738;9.004;2022-12-10T10:56:28;98648.59;;;3.09;68.21
75996;BME280;64681;49.738;9.004;2022-12-10T11:01:53;98651.84;;;2.92;69.03
75996;BME280;64681;49.738;9.004;2022-12-10T11:04:52;98657.28;;;3.10;68.89
75996;BME280;64681;49.738;9.004;2022-12-10T11:07:23;98663.72;;;3.17;69.39
75996;BME280;64681;49.738;9.004;2022-12-10T11:09:53;98658.00;;;3.24;68.27
75996;BME280;64681;49.738;9.004;2022-12-10T11:12:37;98664.34;;;3.60;66.97
75996;BME280;64681;49.738;9.004;2022-12-10T11:15:36;98660.13;;;3.59;67.55
75996;BME280;64681;49.738;9.004;2022-12-10T11:21:16;98662.53;;;3.69;66.61
75996;BME280;64681;49.738;9.004;2022-12-10T11:23:45;98671.00;;;3.80;65.03
75996;BME280;64681;49.738;9.004;2022-12-10T11:27:32;98666.88;;;2.92;68.02
75996;BME280;64681;49.738;9.004;2022-12-10T11:32:28;98675.03;;;3.18;67.14
75996;BME280;64681;49.738;9.004;2022-12-10T11:35:17;98673.66;;;3.21;68.25
75996;BME280;64681;49.738;9.004;2022-12-10T11:43:31;98672.38;;;3.32;67.75
75996;BME280;64681;49.738;9.004;2022-12-10T11:56:46;98666.13;;;3.51;66.92
75996;BME280;64681;49.738;9.004;2022-12-10T12:01:59;98668.34;;;2.98;69.05
75996;BME280;64681;49.738;9.004;2022-12-10T12:13:16;98677.66;;;3.77;67.02
75996;BME280;64681;49.738;9.004;2022-12-10T12:21:10;98689.16;;;3.82;66.69
75996;BME280;64681;49.738;9.004;2022-12-10T12:24:03;98688.28;;;3.86;66.67
75996;BME280;64681;49.738;9.004;2022-12-10T12:26:40;98681.00;;;3.92;67.12
75996;BME280;64681;49.738;9.004;2022-12-10T12:29:30;98683.34;;;3.93;66.95
75996;BME280;64681;49.738;9.004;2022-12-10T12:32:19;98688.69;;;4.02;66.99
75996;BME280;64681;49.738;9.004;2022-12-10T12:35:06;98679.84;;;4.07;66.02
75996;BME280;64681;49.738;9.004;2022-12-10T12:38:10;98684.53;;;4.10;66.89
75996;BME280;64681;49.738;9.004;2022-12-10T12:40:51;98685.63;;;3.86;67.00
75996;BME280;64681;49.738;9.004;2022-12-10T12:43:28;98688.97;;;3.32;68.86
75996;BME280;64681;49.738;9.004;2022-12-10T12:45:58;98673.59;;;3.71;68.06
75996;BME280;64681;49.738;9.004;2022-12-10T12:51:40;98684.66;;;4.05;66.46
75996;BME280;64681;49.738;9.004;2022-12-10T12:54:11;98675.78;;;4.01;66.27
75996;BME280;64681;49.738;9.004;2022-12-10T13:05:25;98678.25;;;3.15;68.78
75996;BME280;64681;49.738;9.004;2022-12-10T13:08:27;98675.31;;;3.53;67.29
75996;BME280;64681;49.738;9.004;2022-12-10T13:22:11;98697.03;;;3.50;68.81
75996;BME280;64681;49.738;9.004;2022-12-10T13:29:59;98706.81;;;3.72;67.94
75996;BME280;64681;49.738;9.004;2022-12-10T13:40:21;98715.84;;;3.71;68.08
75996;BME280;64681;49.738;9.004;2022-12-10T13:42:57;98713.97;;;3.72;68.41
75996;BME280;64681;49.738;9.004;2022-12-10T13:45:42;98717.00;;;3.65;68.72
75996;BME280;64681;49.738;9.004;2022-12-10T13:50:45;98718.56;;;3.43;68.75
75996;BME280;64681;49.738;9.004;2022-12-10T13:58:42;98731.06;;;3.38;68.12
75996;BME280;64681;49.738;9.004;2022-12-10T14:01:46;98731.22;;;3.55;67.49
75996;BME280;64681;49.738;9.004;2022-12-10T14:07:26;98749.06;;;3.36;68.48
75996;BME280;64681;49.738;9.004;2022-12-10T14:09:56;98748.34;;;2.79;68.99
75996;BME280;64681;49.738;9.004;2022-12-10T14:12:33;98750.59;;;3.00;69.28
75996;BME280;64681;49.738;9.004;2022-12-10T14:15:22;98758.25;;;3.24;68.25
75996;BME280;64681;49.738;9.004;2022-12-10T14:17:52;98748.59;;;3.33;68.67
75996;BME280;64681;49.738;9.004;2022-12-10T14:20:24;98762.84;;;3.46;68.31
75996;BME280;64681;49.738;9.004;2022-12-10T14:22:54;98768.38;;;3.59;66.71
75996;BME280;64681;49.738;9.004;2022-12-10T14:25:45;98773.88;;;3.48;66.84
75996;BME280;64681;49.738;9.004;2022-12-10T14:28:16;98776.72;;;3.24;67.61
75996;BME280;64681;49.738;9.004;2022-12-10T14:30:45;98777.53;;;3.25;68.10
75996;BME280;64681;49.738;9.004;2022-12-10T14:33:16;98770.19;;;3.08;68.62
75996;BME280;64681;49.738;9.004;2022-12-10T14:35:47;98772.44;;;3.14;69.04
75996;BME280;64681;49.738;9.004;2022-12-10T14:38:27;98777.34;;;2.93;69.34
75996;BME280;64681;49.738;9.004;2022-12-10T14:40:55;98778.16;;;2.33;71.20
75996;BME280;64681;49.738;9.004;2022-12-10T14:43:24;98776.81;;;2.63;69.66
75996;BME280;64681;49.738;9.004;2022-12-10T14:45:57;98780.31;;;2.45;70.67
75996;BME280;64681;49.738;9.004;2022-12-10T14:48:24;98786.13;;;3.03;68.58
75996;BME280;64681;49.738;9.004;2022-12-10T14:50:50;98795.00;;;3.21;67.98
75996;BME280;64681;49.738;9.004;2022-12-10T14:53:25;98793.47;;;3.06;68.82
75996;BME280;64681;49.738;9.004;2022-12-10T14:55:56;98796.19;;;3.28;68.05
75996;BME280;64681;49.738;9.004;2022-12-10T14:58:43;98791.09;;;3.04;68.29
75996;BME280;64681;49.738;9.004;2022-12-10T15:01:36;98795.66;;;2.57;70.18
75996;BME280;64681;49.738;9.004;2022-12-10T15:04:06;98796.97;;;3.15;68.15
75996;BME280;64681;49.738;9.004;2022-12-10T15:06:38;98808.81;;;3.17;67.71
75996;BME280;64681;49.738;9.004;2022-12-10T15:09:06;98798.16;;;3.23;67.64
75996;BME280;64681;49.738;9.004;2022-12-10T15:11:34;98805.25;;;3.36;67.32
75996;BME280;64681;49.738;9.004;2022-12-10T15:14:03;98795.31;;;3.19;68.43
75996;BME280;64681;49.738;9.004;2022-12-10T15:16:49;98802.44;;;3.32;68.26
75996;BME280;64681;49.738;9.004;2022-12-10T15:21:47;98809.00;;;3.07;68.74
75996;BME280;64681;49.738;9.004;2022-12-10T15:24:37;98816.50;;;3.42;68.26
75996;BME280;64681;49.738;9.004;2022-12-10T15:29:41;98813.16;;;2.66;70.09
75996;BME280;64681;49.738;9.004;2022-12-10T15:32:12;98818.38;;;3.13;68.55
75996;BME280;64681;49.738;9.004;2022-12-10T15:34:47;98821.09;;;3.22;68.41
75996;BME280;64681;49.738;9.004;2022-12-10T15:37:25;98819.06;;;3.33;68.20
75996;BME280;64681;49.738;9.004;2022-12-10T15:39:57;98813.78;;;3.19;68.70
75996;BME280;64681;49.738;9.004;2022-12-10T15:42:36;98810.94;;;3.15;69.79
75996;BME280;64681;49.738;9.004;2022-12-10T15:47:37;98819.75;;;3.25;69.31